createdAt,value
2022-08-27T00:01:53.859Z,3.45
2022-08-27T00:04:22.075Z,3.28
2022-08-27T00:06:50.954Z,3.47
2022-08-27T00:09:26.468Z,3.40
2022-08-27T00:11:57.511Z,3.70
2022-08-27T00:14:26.185Z,3.05
2022-08-27T00:16:54.831Z,3.60
2022-08-27T00:19:23.013Z,3.30
2022-08-27T00:21:51.073Z,3.45
2022-08-27T00:24:19.090Z,3.45
2022-08-27T00:26:47.132Z,3.60
2022-08-27T00:29:16.544Z,3.35
2022-08-27T00:31:44.622Z,3.63
2022-08-27T00:34:13.247Z,3.65
2022-08-27T00:36:41.593Z,3.20
2022-08-27T00:39:09.667Z,3.40
2022-08-27T00:41:38.561Z,3.67
2022-08-27T00:44:07.530Z,3.80
2022-08-27T00:46:39.079Z,3.25
2022-08-27T00:49:09.321Z,3.63
2022-08-27T00:51:38.239Z,3.53
2022-08-27T00:54:08.534Z,3.45
2022-08-27T00:56:38.745Z,3.47
2022-08-27T00:59:06.778Z,3.40
2022-08-27T01:01:35.892Z,3.60
2022-08-27T01:04:06.615Z,3.63
2022-08-27T01:06:36.732Z,3.58
2022-08-27T01:09:06.969Z,3.53
2022-08-27T01:11:35.361Z,3.60
2022-08-27T01:14:04.000Z,3.58
2022-08-27T01:16:33.940Z,3.50
2022-08-27T01:19:02.140Z,3.80
2022-08-27T01:21:34.745Z,3.28
2022-08-27T01:24:06.094Z,3.30
2022-08-27T01:26:35.985Z,3.90
2022-08-27T01:29:04.626Z,3.78
2022-08-27T01:31:32.798Z,3.53
2022-08-27T01:34:02.407Z,3.85
2022-08-27T01:36:30.969Z,3.70
2022-08-27T01:38:59.106Z,4.00
2022-08-27T01:41:27.496Z,3.80
2022-08-27T01:43:56.919Z,3.92
2022-08-27T01:46:26.817Z,3.67
2022-08-27T01:48:55.373Z,3.80
2022-08-27T01:51:23.446Z,3.70
2022-08-27T01:53:51.705Z,3.40
2022-08-27T01:56:19.889Z,3.88
2022-08-27T01:58:47.996Z,3.75
2022-08-27T02:01:17.885Z,3.70
2022-08-27T02:03:47.522Z,3.85
2022-08-27T02:06:15.958Z,3.67
2022-08-27T02:08:44.151Z,3.40
2022-08-27T02:11:12.203Z,4.10
2022-08-27T02:13:40.459Z,4.10
2022-08-27T02:16:09.146Z,3.72
2022-08-27T02:18:41.842Z,3.83
2022-08-27T02:21:10.781Z,3.75
2022-08-27T02:23:39.738Z,4.10
2022-08-27T02:26:07.909Z,3.50
2022-08-27T02:28:36.082Z,3.67
2022-08-27T02:31:04.842Z,5.15
2022-08-27T02:33:33.412Z,3.75
2022-08-27T02:36:02.992Z,3.67
2022-08-27T02:38:31.372Z,3.72
2022-08-27T02:40:59.515Z,3.63
2022-08-27T02:43:28.147Z,3.83
2022-08-27T02:45:57.436Z,3.92
2022-08-27T02:48:26.027Z,4.05
2022-08-27T02:50:54.917Z,4.00
2022-08-27T02:53:24.647Z,4.07
2022-08-27T02:55:53.162Z,3.40
2022-08-27T02:58:21.355Z,4.20
2022-08-27T03:00:49.568Z,4.05
2022-08-27T03:03:17.664Z,3.40
2022-08-27T03:05:46.502Z,4.00
2022-08-27T03:08:14.665Z,3.75
2022-08-27T03:10:44.090Z,3.88
2022-08-27T03:13:12.149Z,3.88
2022-08-27T03:15:40.171Z,3.55
2022-08-27T03:18:19.072Z,3.95
2022-08-27T03:20:48.240Z,4.05
2022-08-27T03:23:16.968Z,3.78
2022-08-27T03:25:47.693Z,4.25
2022-08-27T03:28:23.307Z,4.00
2022-08-27T03:30:53.031Z,4.00
2022-08-27T03:33:22.366Z,3.58
2022-08-27T03:35:52.021Z,4.22
2022-08-27T03:38:20.602Z,4.22
2022-08-27T03:40:50.480Z,4.60
2022-08-27T03:43:19.062Z,4.13
2022-08-27T03:46:00.930Z,4.10
2022-08-27T03:48:30.596Z,4.28
2022-08-27T03:50:58.747Z,4.28
2022-08-27T03:53:26.921Z,3.97
2022-08-27T03:55:56.311Z,4.30
2022-08-27T03:58:24.379Z,4.43
2022-08-27T04:00:52.397Z,4.20
2022-08-27T04:03:20.454Z,4.40
2022-08-27T04:05:53.040Z,4.55
2022-08-27T04:08:21.711Z,4.53
2022-08-27T04:10:50.117Z,4.65
2022-08-27T04:13:20.042Z,4.45
2022-08-27T04:15:49.824Z,4.35
2022-08-27T04:18:18.287Z,4.63
2022-08-27T04:20:46.477Z,4.35
2022-08-27T04:23:15.089Z,4.40
2022-08-27T04:25:43.875Z,4.75
2022-08-27T04:28:12.579Z,4.60
2022-08-27T04:30:42.951Z,5.22
2022-08-27T04:33:14.755Z,4.45
2022-08-27T04:35:43.210Z,4.57
2022-08-27T04:38:11.626Z,4.40
2022-08-27T04:40:57.376Z,4.90
2022-08-27T04:43:25.552Z,5.30
2022-08-27T04:45:54.911Z,5.10
2022-08-27T04:48:23.331Z,4.45
2022-08-27T04:50:51.396Z,4.80
2022-08-27T04:53:19.498Z,4.95
2022-08-27T04:55:50.474Z,5.18
2022-08-27T04:58:19.066Z,4.45
2022-08-27T05:00:48.816Z,4.60
2022-08-27T05:03:19.498Z,4.50
2022-08-27T05:05:47.895Z,4.57
2022-08-27T05:08:17.340Z,4.70
2022-08-27T05:10:46.271Z,4.13
2022-08-27T05:13:14.824Z,4.82
2022-08-27T05:15:43.095Z,4.30
2022-08-27T05:18:11.519Z,4.03
2022-08-27T05:20:44.744Z,4.05
2022-08-27T05:23:13.143Z,4.10
2022-08-27T05:25:42.072Z,4.07
2022-08-27T05:28:10.638Z,3.90
2022-08-27T05:30:39.226Z,4.00
2022-08-27T05:33:07.588Z,4.38
2022-08-27T05:35:40.815Z,4.13
2022-08-27T05:38:11.145Z,3.95
2022-08-27T05:40:40.537Z,4.05
2022-08-27T05:43:08.971Z,3.80
2022-08-27T05:45:41.268Z,4.20
2022-08-27T05:48:11.936Z,5.05
2022-08-27T05:50:40.185Z,4.10
2022-08-27T05:53:08.653Z,3.70
2022-08-27T05:55:41.304Z,4.00
2022-08-27T05:58:29.538Z,4.03
2022-08-27T06:01:09.548Z,3.90
2022-08-27T06:03:39.046Z,3.97
2022-08-27T06:06:08.519Z,4.00
2022-08-27T06:08:37.146Z,4.20
2022-08-27T06:11:08.065Z,4.10
2022-08-27T06:13:36.658Z,3.65
2022-08-27T06:16:08.015Z,4.00
2022-08-27T06:18:36.224Z,3.90
2022-08-27T06:21:04.423Z,3.72
2022-08-27T06:23:35.604Z,3.70
2022-08-27T06:26:07.022Z,3.70
2022-08-27T06:28:36.708Z,3.75
2022-08-27T06:31:05.753Z,3.65
2022-08-27T06:33:34.390Z,3.58
2022-08-27T06:36:02.743Z,4.32
2022-08-27T06:38:30.789Z,3.70
2022-08-27T06:40:58.881Z,3.80
2022-08-27T06:43:27.374Z,3.53
2022-08-27T06:45:56.799Z,3.70
2022-08-27T06:48:24.907Z,3.90
2022-08-27T06:50:53.294Z,3.65
2022-08-27T06:53:24.268Z,4.00
2022-08-27T06:55:53.192Z,4.60
2022-08-27T06:58:21.266Z,4.07
2022-08-27T07:00:49.369Z,4.20
2022-08-27T07:03:18.846Z,3.60
2022-08-27T07:05:47.167Z,3.75
2022-08-27T07:08:15.262Z,3.72
2022-08-27T07:10:43.449Z,4.00
2022-08-27T07:13:11.627Z,3.70
2022-08-27T07:15:39.977Z,3.50
2022-08-27T07:18:09.465Z,3.60
2022-08-27T07:20:42.962Z,3.60
2022-08-27T07:23:11.240Z,4.00
2022-08-27T07:25:41.875Z,3.90
2022-08-27T07:28:10.128Z,4.20
2022-08-27T07:30:38.438Z,4.10
2022-08-27T07:33:06.569Z,4.28
2022-08-27T07:35:34.590Z,4.32
2022-08-27T07:38:04.241Z,3.97
2022-08-27T07:40:32.396Z,4.07
2022-08-27T07:43:18.285Z,4.47
2022-08-27T07:45:47.796Z,4.57
2022-08-27T07:48:17.161Z,3.88
2022-08-27T07:50:45.257Z,4.00
2022-08-27T07:53:14.769Z,3.95
2022-08-27T07:55:43.771Z,4.70
2022-08-27T07:58:16.793Z,3.90
2022-08-27T08:01:02.007Z,4.35
2022-08-27T08:03:30.294Z,4.00
2022-08-27T08:05:58.462Z,4.32
2022-08-27T08:08:27.989Z,4.15
2022-08-27T08:10:58.429Z,3.85
2022-08-27T08:13:26.551Z,3.83
2022-08-27T08:15:54.646Z,4.03
2022-08-27T08:18:23.117Z,3.80
2022-08-27T08:20:58.970Z,3.97
2022-08-27T08:23:28.648Z,4.20
2022-08-27T08:25:57.803Z,3.90
2022-08-27T08:28:26.104Z,3.70
2022-08-27T08:30:54.596Z,3.60
2022-08-27T08:33:22.825Z,4.18
2022-08-27T08:35:51.095Z,3.95
2022-08-27T08:38:19.630Z,4.35
2022-08-27T08:40:50.414Z,4.30
2022-08-27T08:43:27.919Z,3.70
2022-08-27T08:45:57.046Z,4.10
2022-08-27T08:48:27.852Z,3.95
2022-08-27T08:51:00.275Z,3.83
2022-08-27T08:53:37.977Z,4.30
2022-08-27T08:56:10.278Z,4.15
2022-08-27T08:58:42.840Z,4.03
2022-08-27T09:01:11.185Z,4.10
2022-08-27T09:03:41.985Z,4.30
2022-08-27T09:06:12.892Z,4.05
2022-08-27T09:08:42.834Z,4.60
2022-08-27T09:11:18.210Z,3.83
2022-08-27T09:13:49.271Z,3.73
2022-08-27T09:16:18.446Z,3.97
2022-08-27T09:18:51.180Z,3.90
2022-08-27T09:21:27.666Z,3.72
2022-08-27T09:24:08.104Z,3.80
2022-08-27T09:26:39.091Z,3.75
2022-08-27T09:29:22.618Z,3.60
2022-08-27T09:31:55.649Z,3.58
2022-08-27T09:34:24.679Z,3.40
2022-08-27T09:36:55.425Z,3.00
2022-08-27T09:39:29.312Z,4.00
2022-08-27T09:41:58.854Z,3.55
2022-08-27T09:44:27.165Z,3.70
2022-08-27T09:46:56.312Z,3.35
2022-08-27T09:49:25.387Z,3.50
2022-08-27T09:51:54.151Z,3.75
2022-08-27T09:54:28.196Z,3.17
2022-08-27T09:56:57.960Z,3.20
2022-08-27T09:59:28.685Z,3.50
2022-08-27T10:01:59.018Z,3.55
2022-08-27T10:04:28.508Z,3.50
2022-08-27T10:06:56.637Z,3.25
2022-08-27T10:09:33.821Z,3.22
2022-08-27T10:12:04.737Z,3.40
2022-08-27T10:14:37.459Z,3.72
2022-08-27T10:17:12.678Z,3.72
2022-08-27T10:19:46.754Z,3.40
2022-08-27T10:22:21.226Z,3.30
2022-08-27T10:24:56.268Z,3.20
2022-08-27T10:27:26.617Z,3.50
2022-08-27T10:30:02.008Z,3.30
2022-08-27T10:32:39.399Z,3.40
2022-08-27T10:35:10.306Z,3.58
2022-08-27T10:37:46.649Z,3.50
2022-08-27T10:40:17.528Z,3.22
2022-08-27T10:42:52.061Z,3.65
2022-08-27T10:45:33.411Z,3.13
2022-08-27T10:50:31.284Z,3.50
2022-08-27T10:53:01.851Z,3.40
2022-08-27T10:55:33.278Z,3.28
2022-08-27T10:58:19.371Z,3.20
2022-08-27T11:00:51.478Z,3.13
2022-08-27T11:03:23.977Z,3.50
2022-08-27T11:05:52.175Z,3.25
2022-08-27T11:08:22.697Z,3.35
2022-08-27T11:10:52.990Z,3.33
2022-08-27T11:13:24.587Z,4.80
2022-08-27T11:15:56.361Z,3.33
2022-08-27T11:18:30.157Z,4.97
2022-08-27T11:20:59.998Z,3.50
2022-08-27T11:23:29.768Z,3.40
2022-08-27T11:25:59.612Z,3.42
2022-08-27T11:28:37.488Z,3.25
2022-08-27T11:31:09.156Z,3.60
2022-08-27T11:33:45.421Z,3.72
2022-08-27T11:36:20.457Z,3.33
2022-08-27T11:38:54.364Z,3.58
2022-08-27T11:41:45.233Z,3.78
2022-08-27T11:44:14.917Z,3.42
2022-08-27T11:46:46.325Z,3.28
2022-08-27T11:49:24.266Z,5.60
2022-08-27T11:51:58.215Z,4.45
2022-08-27T11:54:28.586Z,4.68
2022-08-27T11:56:56.915Z,4.40
2022-08-27T11:59:30.427Z,4.05
2022-08-27T12:02:11.013Z,3.42
2022-08-27T12:04:40.473Z,3.38
2022-08-27T12:07:11.829Z,4.55
2022-08-27T12:09:53.695Z,3.67
2022-08-27T12:12:23.029Z,3.65
2022-08-27T12:14:55.214Z,3.45
2022-08-27T12:17:28.788Z,3.38
2022-08-27T12:20:03.951Z,3.45
2022-08-27T12:23:05.185Z,3.63
2022-08-27T12:25:33.294Z,3.30
2022-08-27T12:28:03.354Z,3.25
2022-08-27T12:30:33.451Z,3.30
2022-08-27T12:33:10.117Z,6.28
2022-08-27T12:35:43.727Z,3.45
2022-08-27T12:38:16.035Z,3.70
2022-08-27T12:40:48.009Z,4.10
2022-08-27T12:43:19.164Z,3.30
2022-08-27T12:45:48.529Z,3.58
2022-08-27T12:48:20.594Z,4.07
2022-08-27T12:50:52.533Z,4.10
2022-08-27T12:53:38.226Z,3.80
2022-08-27T12:56:30.723Z,3.80
2022-08-27T12:59:04.538Z,5.07
2022-08-27T13:01:46.685Z,4.05
2022-08-27T13:04:22.756Z,3.95
2022-08-27T13:06:51.080Z,3.78
2022-08-27T13:09:26.462Z,3.50
2022-08-27T13:11:56.911Z,3.83
2022-08-27T13:14:26.786Z,3.38
2022-08-27T13:16:56.053Z,4.00
2022-08-27T13:19:26.279Z,3.67
2022-08-27T13:21:55.358Z,3.80
2022-08-27T13:24:30.391Z,3.60
2022-08-27T13:26:58.607Z,3.80
2022-08-27T13:29:27.049Z,3.70
2022-08-27T13:31:55.986Z,3.58
2022-08-27T13:34:27.467Z,3.50
2022-08-27T13:37:00.045Z,3.50
2022-08-27T13:39:28.624Z,4.22
2022-08-27T13:41:59.489Z,3.70
2022-08-27T13:44:29.157Z,3.75
2022-08-27T13:47:01.264Z,3.88
2022-08-27T13:49:32.195Z,3.40
2022-08-27T13:52:01.813Z,3.83
2022-08-27T13:54:29.657Z,3.60
2022-08-27T13:57:08.843Z,3.70
2022-08-27T13:59:42.182Z,3.80
2022-08-27T14:02:22.666Z,3.55
2022-08-27T14:05:04.346Z,3.53
2022-08-27T14:07:34.637Z,4.15
2022-08-27T14:10:04.849Z,3.35
2022-08-27T14:12:35.445Z,3.40
2022-08-27T14:15:14.072Z,3.78
2022-08-27T14:17:45.977Z,3.38
2022-08-27T14:20:17.143Z,3.50
2022-08-27T14:22:45.646Z,3.72
2022-08-27T14:25:13.831Z,3.42
2022-08-27T14:27:52.809Z,3.47
2022-08-27T14:30:29.150Z,3.33
2022-08-27T14:32:58.655Z,3.30
2022-08-27T14:35:28.292Z,3.45
2022-08-27T14:38:02.518Z,3.33
2022-08-27T14:40:31.449Z,3.40
2022-08-27T14:43:01.289Z,3.38
2022-08-27T14:45:29.362Z,3.42
2022-08-27T14:47:59.087Z,3.83
2022-08-27T14:50:32.362Z,3.53
2022-08-27T14:53:00.523Z,3.60
2022-08-27T14:55:28.615Z,3.40
2022-08-27T14:57:56.710Z,3.30
2022-08-27T15:00:25.360Z,3.60
2022-08-27T15:02:54.003Z,3.50
2022-08-27T15:05:24.789Z,3.67
2022-08-27T15:07:56.351Z,3.38
2022-08-27T15:10:26.309Z,3.33
2022-08-27T15:12:55.043Z,3.30
2022-08-27T15:15:23.098Z,3.42
2022-08-27T15:17:51.436Z,3.50
2022-08-27T15:20:20.356Z,3.35
2022-08-27T15:22:49.403Z,3.08
2022-08-27T15:25:19.315Z,3.60
2022-08-27T15:27:47.591Z,3.95
2022-08-27T15:30:16.671Z,3.70
2022-08-27T15:32:46.018Z,3.50
2022-08-27T15:35:15.888Z,3.72
2022-08-27T15:37:44.553Z,3.42
2022-08-27T15:40:14.794Z,3.60
2022-08-27T15:42:44.307Z,3.50
2022-08-27T15:45:13.408Z,3.80
2022-08-27T15:47:41.787Z,3.80
2022-08-27T15:50:10.134Z,3.80
2022-08-27T15:52:41.161Z,3.50
2022-08-27T15:55:14.341Z,3.38
2022-08-27T15:57:42.445Z,3.72
2022-08-27T16:00:12.891Z,4.10
2022-08-27T16:02:42.036Z,3.67
2022-08-27T16:05:11.406Z,3.63
2022-08-27T16:07:39.553Z,3.85
2022-08-27T16:10:08.444Z,4.00
2022-08-27T16:12:37.023Z,3.83
2022-08-27T16:15:05.891Z,3.97
2022-08-27T16:17:35.690Z,4.10
2022-08-27T16:20:04.413Z,3.70
2022-08-27T16:22:32.536Z,3.80
2022-08-27T16:25:00.744Z,3.58
2022-08-27T16:27:28.893Z,3.90
2022-08-27T16:29:57.413Z,3.83
2022-08-27T16:32:25.994Z,4.03
2022-08-27T16:34:56.190Z,4.43
2022-08-27T16:37:24.582Z,3.95
2022-08-27T16:39:53.462Z,4.13
2022-08-27T16:42:21.851Z,3.83
2022-08-27T16:44:50.131Z,3.90
2022-08-27T16:47:18.275Z,4.40
2022-08-27T16:50:04.030Z,4.18
2022-08-27T16:52:33.575Z,4.00
2022-08-27T16:55:01.731Z,4.50
2022-08-27T16:57:29.820Z,4.50
2022-08-27T16:59:58.013Z,4.18
2022-08-27T17:02:30.532Z,4.20
2022-08-27T17:05:17.446Z,4.30
2022-08-27T17:07:49.286Z,4.10
2022-08-27T17:10:18.502Z,4.05
2022-08-27T17:12:48.064Z,4.15
2022-08-27T17:15:16.905Z,4.20
2022-08-27T17:17:45.255Z,3.95
2022-08-27T17:20:15.266Z,3.90
2022-08-27T17:22:43.629Z,4.15
2022-08-27T17:25:13.044Z,4.25
2022-08-27T17:27:41.119Z,4.10
2022-08-27T17:30:09.985Z,3.95
2022-08-27T17:32:39.906Z,4.00
2022-08-27T17:35:10.658Z,4.18
2022-08-27T17:37:39.413Z,4.50
2022-08-27T17:40:10.071Z,4.20
2022-08-27T17:42:39.758Z,4.10
2022-08-27T17:45:08.467Z,4.95
2022-08-27T17:47:36.660Z,4.60
2022-08-27T17:50:04.909Z,4.88
2022-08-27T17:52:33.752Z,5.75
2022-08-27T17:55:01.826Z,5.72
2022-08-27T17:57:40.289Z,6.38
2022-08-27T18:00:12.961Z,6.22
2022-08-27T18:02:44.017Z,5.20
2022-08-27T18:05:13.429Z,4.93
2022-08-27T18:07:41.757Z,5.10
2022-08-27T18:10:10.725Z,4.68
2022-08-27T18:12:38.810Z,4.63
2022-08-27T18:15:08.450Z,4.65
2022-08-27T18:17:38.341Z,4.38
2022-08-27T18:20:13.240Z,4.80
2022-08-27T18:22:48.756Z,4.80
2022-08-27T18:25:18.048Z,4.65
2022-08-27T18:27:47.349Z,4.85
2022-08-27T18:30:16.382Z,5.00
2022-08-27T18:32:45.890Z,4.60
2022-08-27T18:35:15.358Z,4.65
2022-08-27T18:37:43.593Z,4.25
2022-08-27T18:40:12.323Z,4.28
2022-08-27T18:42:41.408Z,4.70
2022-08-27T18:45:11.068Z,4.60
2022-08-27T18:47:39.327Z,4.90
2022-08-27T18:50:17.799Z,4.90
2022-08-27T18:52:46.505Z,4.43
2022-08-27T18:55:15.947Z,5.38
2022-08-27T18:57:44.188Z,4.72
2022-08-27T19:00:13.425Z,4.80
2022-08-27T19:02:41.855Z,5.00
2022-08-27T19:05:11.161Z,4.75
2022-08-27T19:07:40.810Z,4.80
2022-08-27T19:10:09.983Z,5.20
2022-08-27T19:12:41.397Z,5.20
2022-08-27T19:15:12.591Z,4.75
2022-08-27T19:17:41.759Z,5.03
2022-08-27T19:20:10.706Z,4.78
2022-08-27T19:22:40.168Z,4.95
2022-08-27T19:25:08.666Z,4.75
2022-08-27T19:27:37.238Z,4.60
2022-08-27T19:30:06.180Z,4.70
2022-08-27T19:32:34.476Z,4.70
2022-08-27T19:35:02.631Z,4.40
2022-08-27T19:37:31.410Z,4.57
2022-08-27T19:40:00.837Z,4.60
2022-08-27T19:42:29.489Z,5.03
2022-08-27T19:44:57.612Z,4.68
2022-08-27T19:47:26.111Z,4.70
2022-08-27T19:49:55.039Z,4.53
2022-08-27T19:52:23.578Z,4.40
2022-08-27T19:55:13.152Z,4.60
2022-08-27T19:57:44.100Z,4.70
2022-08-27T20:00:14.145Z,4.80
2022-08-27T20:02:43.239Z,4.72
2022-08-27T20:05:18.656Z,5.07
2022-08-27T20:07:47.463Z,4.53
2022-08-27T20:10:16.476Z,5.20
2022-08-27T20:12:46.195Z,5.00
2022-08-27T20:15:15.740Z,4.90
2022-08-27T20:17:45.300Z,4.55
2022-08-27T20:20:13.572Z,4.90
2022-08-27T20:22:42.026Z,5.05
2022-08-27T20:25:10.808Z,5.40
2022-08-27T20:27:39.405Z,4.88
2022-08-27T20:30:10.984Z,4.30
2022-08-27T20:32:39.157Z,4.82
2022-08-27T20:35:08.446Z,4.18
2022-08-27T20:37:42.006Z,4.20
2022-08-27T20:40:12.515Z,3.72
2022-08-27T20:42:40.738Z,4.10
2022-08-27T20:45:12.308Z,3.97
2022-08-27T20:47:40.845Z,4.05
2022-08-27T20:50:09.165Z,4.13
2022-08-27T20:52:40.080Z,4.05
2022-08-27T20:55:09.124Z,3.90
2022-08-27T20:57:37.154Z,4.30
2022-08-27T21:00:20.016Z,3.83
2022-08-27T21:02:49.507Z,3.95
2022-08-27T21:05:18.543Z,3.90
2022-08-27T21:07:48.872Z,3.50
2022-08-27T21:10:17.048Z,3.88
2022-08-27T21:12:45.789Z,3.60
2022-08-27T21:15:14.218Z,3.45
2022-08-27T21:17:42.256Z,3.58
2022-08-27T21:20:13.383Z,3.55
2022-08-27T21:22:42.426Z,3.45
2022-08-27T21:25:14.114Z,3.13
2022-08-27T21:27:42.483Z,3.50
2022-08-27T21:30:12.031Z,3.50
2022-08-27T21:32:40.041Z,3.85
2022-08-27T21:35:08.888Z,3.63
2022-08-27T21:37:38.368Z,3.67
2022-08-27T21:40:07.908Z,3.50
2022-08-27T21:42:36.103Z,3.67
2022-08-27T21:45:04.355Z,3.85
2022-08-27T21:47:32.447Z,3.60
2022-08-27T21:50:00.813Z,4.03
2022-08-27T21:52:28.913Z,3.92
2022-08-27T21:54:58.404Z,3.80
2022-08-27T21:57:26.468Z,3.90
2022-08-27T21:59:54.579Z,4.57
2022-08-27T22:02:39.278Z,4.88
2022-08-27T22:07:36.876Z,4.25
2022-08-27T22:10:07.344Z,3.90
2022-08-27T22:12:36.054Z,3.55
2022-08-27T22:15:04.636Z,3.60
2022-08-27T22:17:32.779Z,4.30
2022-08-27T22:20:00.761Z,3.40
2022-08-27T22:22:30.433Z,3.60
2022-08-27T22:24:59.118Z,3.72
2022-08-27T22:27:28.662Z,3.47
2022-08-27T22:29:56.743Z,3.38
2022-08-27T22:32:24.854Z,3.42
2022-08-27T22:34:52.945Z,3.60
2022-08-27T22:37:21.107Z,3.40
2022-08-27T22:39:49.169Z,3.42
2022-08-27T22:42:18.226Z,3.55
2022-08-27T22:44:47.830Z,3.60
2022-08-27T22:47:16.037Z,3.63
2022-08-27T22:49:44.258Z,3.75
2022-08-27T22:52:12.342Z,3.85
2022-08-27T22:54:40.685Z,3.97
2022-08-27T22:57:10.420Z,3.30
2022-08-27T22:59:40.079Z,3.50
2022-08-27T23:02:10.944Z,3.55
2022-08-27T23:04:54.670Z,3.50
2022-08-27T23:07:23.566Z,3.08
2022-08-27T23:09:51.880Z,3.47
2022-08-27T23:12:20.217Z,3.67
2022-08-27T23:14:48.319Z,3.90
2022-08-27T23:17:17.770Z,3.58
2022-08-27T23:19:46.209Z,3.60
2022-08-27T23:22:15.403Z,3.47
2022-08-27T23:24:57.371Z,3.45
2022-08-27T23:27:31.391Z,3.35
2022-08-27T23:29:59.976Z,3.20
2022-08-27T23:32:29.712Z,3.42
2022-08-27T23:34:58.158Z,3.50
2022-08-27T23:37:27.430Z,3.40
2022-08-27T23:39:56.148Z,3.33
2022-08-27T23:42:24.624Z,3.17
2022-08-27T23:44:52.755Z,3.13
2022-08-27T23:47:21.077Z,2.88
2022-08-27T23:49:50.700Z,3.15
2022-08-27T23:52:18.891Z,3.30
2022-08-27T23:54:46.965Z,3.20
2022-08-27T23:57:15.038Z,3.38
2022-08-27T23:59:43.140Z,3.28
